Time;durP1;ratioP1;P1;durP2;ratioP2;P2;SDS_P1;SDS_P2;PMS_P1;PMS_P2;Temp;Humidity;BMP_temperature;BMP_pressure;BME280_temperature;BME280_humidity;BME280_pressure;Samples;Min_cycle;Max_cycle;Signal;HPM_P1;HPM_P2
2022/02/06 00:00:39;;;;;;;22.23;9.15;;;;;;;-0.55;70.73;98627.31;5039323;28;20076;-66
2022/02/06 00:03:05;;;;;;;25.98;10.05;;;;;;;-0.54;70.66;98628.97;5034464;28;20082;-67
2022/02/06 00:05:31;;;;;;;20.70;9.25;;;;;;;-0.50;70.92;98623.94;5030894;28;20034;-66
2022/02/06 00:07:57;;;;;;;23.40;10.15;;;;;;;-0.48;70.83;98620.00;5034563;28;20033;-67
2022/02/06 00:10:23;;;;;;;21.42;9.50;;;;;;;-0.44;71.03;98619.56;5040052;28;20029;-67
2022/02/06 00:12:48;;;;;;;23.02;9.48;;;;;;;-0.41;70.31;98611.84;5039880;28;20055;-67
2022/02/06 00:15:14;;;;;;;22.67;9.82;;;;;;;-0.37;70.45;98609.53;5039572;28;20040;-67
2022/02/06 00:17:40;;;;;;;25.33;9.95;;;;;;;-0.34;70.19;98620.69;5039292;28;20072;-66
2022/02/06 00:20:07;;;;;;;20.23;9.43;;;;;;;-0.31;70.36;98625.66;5056704;28;20828;-66
2022/02/06 00:25:14;;;;;;;24.85;9.63;;;;;;;-0.29;70.65;98616.53;5056909;28;20041;-66
2022/02/06 00:30:25;;;;;;;20.63;8.35;;;;;;;-0.36;70.41;98613.88;5059495;28;20041;-67
2022/02/06 00:33:21;;;;;;;20.35;9.57;;;;;;;-0.36;70.48;98621.94;5056902;28;20029;-66
2022/02/06 00:38:23;;;;;;;18.88;8.25;;;;;;;-0.41;70.46;98609.16;5058435;28;20067;-66
2022/02/06 00:43:13;;;;;;;22.15;10.35;;;;;;;-0.47;70.35;98608.19;5057228;28;20401;-66
2022/02/06 00:45:39;;;;;;;22.33;9.98;;;;;;;-0.48;70.40;98598.44;5056655;28;20036;-66
2022/02/06 00:48:04;;;;;;;20.73;9.02;;;;;;;-0.48;70.54;98593.06;5056329;28;20849;-66
2022/02/06 00:50:31;;;;;;;23.38;9.52;;;;;;;-0.49;70.20;98596.78;5057516;28;20037;-66
2022/02/06 00:53:04;;;;;;;22.45;9.30;;;;;;;-0.48;70.76;98586.81;5055668;28;20064;-66
2022/02/06 00:55:30;;;;;;;20.38;8.52;;;;;;;-0.44;70.43;98585.34;5040822;28;20154;-66
2022/02/06 00:57:55;;;;;;;19.23;9.35;;;;;;;-0.40;70.65;98581.16;5043739;28;20474;-67
2022/02/06 01:00:20;;;;;;;19.08;8.68;;;;;;;-0.37;70.19;98564.53;5044841;28;20079;-66
2022/02/06 01:02:46;;;;;;;17.70;8.30;;;;;;;-0.32;70.28;98570.09;5044978;28;20039;-66
2022/02/06 01:05:11;;;;;;;18.13;7.57;;;;;;;-0.28;70.33;98564.25;5042517;28;20035;-66
2022/02/06 01:07:37;;;;;;;16.38;7.38;;;;;;;-0.25;70.54;98547.66;5044843;28;20023;-66
2022/02/06 01:10:03;;;;;;;14.90;7.75;;;;;;;-0.23;70.17;98562.53;5044427;28;20039;-66
2022/02/06 01:12:31;;;;;;;16.77;7.90;;;;;;;-0.19;70.09;98546.72;5044451;28;20040;-66
2022/02/06 01:17:39;;;;;;;17.85;8.40;;;;;;;-0.12;69.93;98541.28;5043387;28;20052;-67
2022/02/06 01:20:20;;;;;;;15.68;6.82;;;;;;;-0.10;69.80;98533.81;5043834;28;20114;-67
2022/02/06 01:22:54;;;;;;;12.40;6.97;;;;;;;-0.05;70.04;98536.66;5043462;28;20025;-67
2022/02/06 01:25:27;;;;;;;15.95;8.15;;;;;;;-0.04;69.92;98528.31;5041611;28;20036;-67
2022/02/06 01:28:04;;;;;;;14.23;8.02;;;;;;;-0.01;70.06;98517.09;5043769;28;20044;-67
2022/02/06 01:33:11;;;;;;;17.65;9.15;;;;;;;0.05;69.10;98519.94;5043495;28;20075;-66
2022/02/06 01:35:54;;;;;;;18.00;9.43;;;;;;;0.06;69.54;98514.31;5040794;28;20041;-66
2022/02/06 01:43:24;;;;;;;15.70;7.50;;;;;;;0.06;69.17;98497.31;5043362;28;20408;-66
2022/02/06 02:04:39;;;;;;;10.75;5.60;;;;;;;0.34;68.82;98479.72;5043473;28;20044;-66
2022/02/06 02:16:08;;;;;;;11.15;5.10;;;;;;;0.54;68.11;98455.13;5042606;28;20040;-67
2022/02/06 02:20:46;;;;;;;8.95;5.15;;;;;;;0.63;68.57;98453.75;5042948;28;20067;-66
2022/02/06 02:47:43;;;;;;;8.20;4.68;;;;;;;0.88;67.81;98413.06;5042979;28;20923;-66
2022/02/06 02:50:16;;;;;;;8.35;4.78;;;;;;;0.88;67.51;98421.16;5041731;28;20021;-66
2022/02/06 03:01:02;;;;;;;7.80;4.03;;;;;;;0.97;68.37;98410.03;5020234;28;20029;-66
2022/02/06 03:03:31;;;;;;;9.93;3.83;;;;;;;1.00;67.95;98414.97;5032981;28;20048;-66
2022/02/06 03:05:59;;;;;;;7.13;3.70;;;;;;;1.03;67.87;98400.97;5039868;28;20021;-66
2022/02/06 03:08:26;;;;;;;8.85;4.57;;;;;;;1.06;68.22;98394.28;5041603;28;20485;-66
2022/02/06 03:10:53;;;;;;;8.70;4.00;;;;;;;1.09;67.96;98394.63;5042151;28;20591;-67
2022/02/06 03:13:21;;;;;;;6.90;3.38;;;;;;;1.14;67.39;98391.22;5041900;28;20048;-66
2022/02/06 03:16:00;;;;;;;6.05;3.47;;;;;;;1.15;67.44;98395.56;5039539;28;20385;-67
2022/02/06 03:18:30;;;;;;;7.75;3.67;;;;;;;1.21;67.13;98388.38;5041643;28;20029;-67
2022/02/06 03:20:56;;;;;;;8.82;4.45;;;;;;;1.23;66.80;98383.56;5041801;28;20430;-66
2022/02/06 03:23:22;;;;;;;8.45;3.75;;;;;;;1.22;67.47;98387.34;5042122;28;20079;-66
2022/02/06 03:25:52;;;;;;;7.00;3.40;;;;;;;1.22;66.85;98385.47;5040020;28;20029;-66
2022/02/06 03:28:18;;;;;;;10.13;4.32;;;;;;;1.25;67.45;98376.88;5040957;28;20029;-66
2022/02/06 03:30:43;;;;;;;11.30;4.35;;;;;;;1.26;66.87;98367.69;5041652;28;20056;-66
2022/02/06 03:33:10;;;;;;;5.72;3.33;;;;;;;1.29;67.07;98364.53;5041715;28;20400;-66
2022/02/06 03:35:36;;;;;;;8.40;3.75;;;;;;;1.32;66.67;98363.25;5039227;28;20021;-67
2022/02/06 03:38:01;;;;;;;6.60;3.03;;;;;;;1.32;66.90;98360.53;5041439;28;20037;-65
2022/02/06 03:40:30;;;;;;;6.70;3.22;;;;;;;1.35;66.80;98368.16;5040310;28;20496;-66
2022/02/06 03:43:05;;;;;;;10.20;3.67;;;;;;;1.37;67.23;98366.06;5041243;28;20048;-66
2022/02/06 03:45:39;;;;;;;7.90;3.53;;;;;;;1.40;67.29;98362.03;5039554;28;20025;-66
2022/02/06 03:48:14;;;;;;;7.05;3.75;;;;;;;1.41;67.02;98358.28;5039854;28;20037;-66
2022/02/06 03:50:46;;;;;;;8.57;3.40;;;;;;;1.43;66.46;98356.97;5041414;28;20531;-66
2022/02/06 03:53:12;;;;;;;10.63;4.43;;;;;;;1.46;66.18;98353.78;5040310;28;20087;-66
2022/02/06 03:55:38;;;;;;;7.32;3.10;;;;;;;1.48;66.29;98353.56;5039607;28;20021;-66
2022/02/06 03:58:03;;;;;;;5.78;2.85;;;;;;;1.49;66.85;98344.41;5040728;28;20473;-66
2022/02/06 04:00:29;;;;;;;7.55;4.40;;;;;;;1.47;66.70;98336.50;5041190;28;20405;-66
2022/02/06 04:02:54;;;;;;;5.25;3.47;;;;;;;1.46;66.25;98332.16;5041249;28;20095;-65
2022/02/06 04:05:20;;;;;;;8.13;3.22;;;;;;;1.48;66.26;98331.94;5040664;28;20033;-66
2022/02/06 04:07:46;;;;;;;6.75;3.38;;;;;;;1.47;66.18;98314.88;5040613;28;20139;-66
2022/02/06 04:10:14;;;;;;;5.75;3.05;;;;;;;1.46;66.47;98309.75;5041182;28;20029;-66
2022/02/06 04:12:42;;;;;;;5.63;3.22;;;;;;;1.49;66.52;98312.78;5040625;28;20790;-66
2022/02/06 04:15:18;;;;;;;11.35;4.75;;;;;;;1.49;66.57;98304.66;5039724;28;20025;-66
2022/02/06 04:17:48;;;;;;;6.72;3.38;;;;;;;1.51;67.00;98303.59;5040416;28;20485;-66
2022/02/06 04:20:13;;;;;;;6.80;3.20;;;;;;;1.51;66.51;98292.78;5041679;28;20024;-66
2022/02/06 04:22:39;;;;;;;7.57;4.40;;;;;;;1.49;66.30;98291.16;5041266;28;20040;-66
2022/02/06 04:25:04;;;;;;;6.25;4.13;;;;;;;1.51;66.44;98276.56;5039751;28;20548;-66
2022/02/06 04:27:30;;;;;;;8.57;4.03;;;;;;;1.48;66.25;98281.41;5039604;28;20060;-66
2022/02/06 04:29:56;;;;;;;7.53;3.30;;;;;;;1.48;66.62;98267.06;5043986;28;20067;-66
2022/02/06 04:32:22;;;;;;;6.93;3.60;;;;;;;1.48;66.18;98277.88;5044898;28;20031;-67
2022/02/06 04:34:49;;;;;;;6.20;3.47;;;;;;;1.48;66.48;98267.88;5044532;28;20151;-66
2022/02/06 04:42:43;;;;;;;7.00;3.17;;;;;;;1.43;66.21;98251.56;5043480;28;20532;-66
2022/02/06 05:15:11;;;;;;;5.53;3.25;;;;;;;1.38;66.32;98221.78;5043608;28;20039;-66
2022/02/06 05:28:21;;;;;;;4.05;2.95;;;;;;;1.39;66.41;98200.97;5044322;28;20041;-65
2022/02/06 05:31:02;;;;;;;6.32;2.72;;;;;;;1.36;66.02;98209.56;5044535;28;20033;-66
2022/02/06 05:33:27;;;;;;;6.78;3.20;;;;;;;1.37;66.42;98197.69;5044403;28;20063;-66
2022/02/06 05:35:53;;;;;;;5.88;2.72;;;;;;;1.38;66.47;98197.44;5042379;28;20021;-66
2022/02/06 05:38:18;;;;;;;7.45;2.80;;;;;;;1.38;65.71;98196.63;5045109;28;20527;-66
2022/02/06 05:40:44;;;;;;;6.13;2.88;;;;;;;1.40;65.75;98180.97;5044945;28;20037;-66
2022/02/06 05:43:09;;;;;;;7.13;3.22;;;;;;;1.42;66.13;98171.59;5044445;28;20057;-66
2022/02/06 05:45:34;;;;;;;7.60;3.28;;;;;;;1.45;66.25;98173.78;5042881;28;20124;-66
2022/02/06 05:48:00;;;;;;;6.55;3.60;;;;;;;1.44;66.26;98163.22;5044820;28;20040;-67
2022/02/06 05:50:25;;;;;;;6.68;3.17;;;;;;;1.45;65.97;98165.66;5044283;28;20037;-67
2022/02/06 05:52:51;;;;;;;7.57;3.38;;;;;;;1.43;66.21;98156.19;5045033;28;20029;-67
2022/02/06 05:55:17;;;;;;;10.63;3.13;;;;;;;1.40;65.94;98154.78;5043051;28;20032;-67
2022/02/06 05:57:43;;;;;;;7.55;3.03;;;;;;;1.42;66.07;98160.78;5044614;28;20033;-66
2022/02/06 06:00:12;;;;;;;5.68;3.05;;;;;;;1.42;66.17;98160.78;5044671;28;20098;-66
2022/02/06 06:02:38;;;;;;;8.80;3.92;;;;;;;1.43;65.70;98165.09;5043799;28;20538;-67
2022/02/06 06:05:04;;;;;;;8.77;2.95;;;;;;;1.43;66.04;98159.69;5043299;28;21473;-67
2022/02/06 06:07:29;;;;;;;6.53;2.80;;;;;;;1.44;65.35;98150.50;5043403;28;20029;-66
2022/02/06 06:09:55;;;;;;;5.25;2.80;;;;;;;1.44;65.97;98150.50;5045337;28;20024;-66
2022/02/06 06:12:20;;;;;;;7.78;3.08;;;;;;;1.46;66.03;98150.28;5044427;28;20119;-66
2022/02/06 06:14:47;;;;;;;8.30;3.30;;;;;;;1.47;65.20;98147.31;5043187;28;20032;-66
2022/02/06 06:17:13;;;;;;;8.13;3.10;;;;;;;1.46;65.29;98140.28;5040743;28;20044;-66
2022/02/06 06:19:42;;;;;;;7.80;3.03;;;;;;;1.46;65.84;98137.56;5043336;28;20468;-67
2022/02/06 06:22:10;;;;;;;9.93;4.25;;;;;;;1.49;65.33;98130.88;5044104;28;20041;-67
2022/02/06 06:24:41;;;;;;;7.72;3.65;;;;;;;1.46;65.37;98128.66;5042226;28;20035;-67
2022/02/06 06:27:07;;;;;;;11.52;4.75;;;;;;;1.49;65.55;98125.47;5040550;28;20041;-67
2022/02/06 06:29:32;;;;;;;9.82;4.03;;;;;;;1.48;65.04;98140.84;5045688;28;20733;-67
2022/02/06 06:31:58;;;;;;;5.45;2.95;;;;;;;1.51;65.76;98139.56;5044915;28;20033;-66
2022/02/06 06:34:23;;;;;;;6.38;2.95;;;;;;;1.55;65.79;98138.00;5042796;28;20021;-66
2022/02/06 06:36:50;;;;;;;6.28;3.05;;;;;;;1.58;65.03;98139.41;5040865;28;20032;-67
2022/02/06 06:39:22;;;;;;;7.60;3.63;;;;;;;1.59;64.91;98138.34;5042787;28;20454;-67
2022/02/06 06:41:48;;;;;;;11.90;5.40;;;;;;;1.58;65.72;98134.81;5041897;28;20041;-66
2022/02/06 06:44:13;;;;;;;15.93;4.70;;;;;;;1.58;65.84;98131.28;5044072;28;20063;-66
2022/02/06 06:46:38;;;;;;;7.10;3.30;;;;;;;1.58;65.06;98125.88;5040685;28;20033;-66
2022/02/06 06:49:04;;;;;;;8.73;3.50;;;;;;;1.59;65.03;98122.13;5042834;28;20466;-67
2022/02/06 06:51:29;;;;;;;8.07;2.83;;;;;;;1.55;64.76;98119.09;5043127;28;20827;-67
2022/02/06 06:53:55;;;;;;;6.35;2.92;;;;;;;1.53;65.09;98125.78;5043244;28;20032;-67
2022/02/06 06:56:41;;;;;;;7.53;3.60;;;;;;;1.53;65.24;98114.97;5040661;28;20040;-67
2022/02/06 06:59:24;;;;;;;8.60;3.72;;;;;;;1.51;65.14;98125.22;5043432;28;20024;-67
2022/02/06 07:01:54;;;;;;;7.07;3.22;;;;;;;1.50;65.75;98116.31;5043132;28;20025;-67
2022/02/06 07:04:19;;;;;;;9.57;4.28;;;;;;;1.51;65.82;98106.28;5043117;28;20021;-66
2022/02/06 07:06:45;;;;;;;9.02;3.40;;;;;;;1.53;65.88;98112.28;5040914;28;20040;-66
2022/02/06 07:09:10;;;;;;;10.05;4.85;;;;;;;1.55;65.56;98110.97;5043896;28;20219;-67
2022/02/06 07:11:36;;;;;;;7.90;3.85;;;;;;;1.61;65.58;98109.16;5042900;28;20142;-67
2022/02/06 07:14:01;;;;;;;9.18;6.63;;;;;;;1.65;65.22;98110.31;5043133;28;20036;-67
2022/02/06 07:16:26;;;;;;;8.45;4.18;;;;;;;1.71;65.62;98103.94;5040686;28;20036;-67
2022/02/06 07:18:52;;;;;;;10.90;4.00;;;;;;;1.73;65.29;98100.97;5042532;28;20029;-67
2022/02/06 07:21:17;;;;;;;12.70;3.92;;;;;;;1.75;65.48;98107.78;5042891;28;20025;-66
2022/02/06 07:23:42;;;;;;;9.07;4.18;;;;;;;1.80;64.70;98108.94;5043482;28;20400;-67
2022/02/06 07:26:14;;;;;;;9.57;3.35;;;;;;;1.84;65.32;98097.34;5040602;28;20032;-66
2022/02/06 07:28:47;;;;;;;11.48;4.05;;;;;;;1.89;65.06;98099.31;5042559;28;20024;-67
2022/02/06 07:31:12;;;;;;;7.85;3.50;;;;;;;1.91;64.42;98100.72;5043017;28;20036;-66
2022/02/06 07:33:38;;;;;;;8.70;3.70;;;;;;;1.96;64.44;98089.13;5043070;28;20041;-66
2022/02/06 07:36:04;;;;;;;12.13;4.60;;;;;;;1.97;65.17;98089.97;5039127;28;20504;-66
2022/02/06 07:38:29;;;;;;;7.63;3.70;;;;;;;2.01;64.64;98091.09;5042155;28;20127;-67
2022/02/06 07:40:54;;;;;;;9.63;4.05;;;;;;;2.03;64.25;98084.38;5041585;28;20103;-66
2022/02/06 07:43:20;;;;;;;9.02;3.72;;;;;;;2.06;64.93;98089.28;5041522;28;20048;-66
2022/02/06 07:45:46;;;;;;;7.65;4.05;;;;;;;2.12;64.59;98087.44;5042782;28;20381;-67
2022/02/06 07:48:12;;;;;;;7.32;3.72;;;;;;;2.16;64.01;98083.19;5041300;28;20033;-67
2022/02/06 07:50:38;;;;;;;7.35;3.85;;;;;;;2.18;63.90;98097.28;5042717;28;20029;-66
2022/02/06 07:53:04;;;;;;;10.65;4.00;;;;;;;2.20;63.58;98091.63;5042334;28;20029;-66
2022/02/06 07:55:29;;;;;;;11.13;5.38;;;;;;;2.24;63.84;98076.53;5041581;28;20035;-66
2022/02/06 07:57:55;;;;;;;7.43;3.67;;;;;;;2.28;63.64;98090.38;5042461;28;20021;-66
2022/02/06 08:00:21;;;;;;;8.02;3.78;;;;;;;2.27;63.65;98089.53;5042667;28;20035;-67
2022/02/06 08:02:46;;;;;;;9.50;4.50;;;;;;;2.30;63.66;98078.22;5043114;28;20029;-67
2022/02/06 08:05:12;;;;;;;9.35;5.30;;;;;;;2.34;63.45;98073.13;5045822;28;20052;-67
2022/02/06 08:07:39;;;;;;;8.13;3.50;;;;;;;2.32;62.70;98073.38;5046033;28;21088;-67
2022/02/06 08:10:05;;;;;;;9.68;3.97;;;;;;;2.37;62.99;98075.34;5046406;28;20094;-67
2022/02/06 08:12:33;;;;;;;9.27;3.67;;;;;;;2.37;62.83;98075.34;5045768;28;20017;-66
2022/02/06 08:15:03;;;;;;;9.20;4.10;;;;;;;2.40;63.37;98055.88;5044668;28;20044;-67
2022/02/06 08:17:28;;;;;;;9.57;3.15;;;;;;;2.43;62.75;98058.09;5046026;28;20025;-67
2022/02/06 08:19:55;;;;;;;8.77;3.67;;;;;;;2.46;62.55;98056.75;5044379;28;20036;-67
2022/02/06 08:22:22;;;;;;;8.55;3.67;;;;;;;2.53;62.28;98051.97;5046376;28;20756;-67
2022/02/06 08:24:48;;;;;;;8.63;3.90;;;;;;;2.58;62.06;98049.31;5046455;28;20025;-67
2022/02/06 08:27:14;;;;;;;9.60;4.30;;;;;;;2.63;62.91;98041.25;5045100;28;20040;-67
2022/02/06 08:29:43;;;;;;;9.48;3.60;;;;;;;2.67;62.28;98041.56;5046729;28;20032;-67
2022/02/06 08:32:09;;;;;;;26.20;10.47;;;;;;;2.71;62.06;98037.25;5046564;28;20048;-66
2022/02/06 08:34:34;;;;;;;14.27;5.00;;;;;;;2.75;62.26;98045.69;5045299;28;20040;-67
2022/02/06 08:37:02;;;;;;;8.88;3.83;;;;;;;2.77;62.37;98048.97;5043666;28;20128;-67
2022/02/06 08:39:32;;;;;;;11.20;4.20;;;;;;;2.77;61.74;98044.38;5044686;28;20033;-67
2022/02/06 08:41:59;;;;;;;7.30;3.00;;;;;;;2.77;61.68;98041.66;5045109;28;20049;-67
2022/02/06 08:44:26;;;;;;;19.38;6.90;;;;;;;2.75;61.84;98024.03;5045030;28;20021;-67
2022/02/06 08:46:51;;;;;;;22.33;7.07;;;;;;;2.76;61.62;98022.94;5045449;28;20028;-67
2022/02/06 08:49:17;;;;;;;10.40;4.60;;;;;;;2.74;62.25;98028.63;5044755;28;20044;-67
2022/02/06 08:51:42;;;;;;;10.40;4.60;;;;;;;2.77;61.70;98017.28;5046215;28;20029;-67
2022/02/06 08:54:09;;;;;;;11.50;4.90;;;;;;;2.78;62.17;98026.22;5045602;28;20739;-66
2022/02/06 08:56:39;;;;;;;8.40;3.67;;;;;;;2.80;62.33;98018.66;5045438;28;20025;-67
2022/02/06 08:59:05;;;;;;;11.50;4.07;;;;;;;2.78;61.17;98013.50;5045173;28;20186;-66
2022/02/06 09:01:30;;;;;;;14.18;4.50;;;;;;;2.78;61.26;98002.69;5045920;28;20033;-68
2022/02/06 09:03:57;;;;;;;7.38;3.47;;;;;;;2.80;61.03;98010.53;5046939;28;20036;-68
2022/02/06 09:06:22;;;;;;;13.93;3.88;;;;;;;2.79;61.24;98008.91;5045661;28;20037;-68
2022/02/06 09:08:53;;;;;;;14.43;4.25;;;;;;;2.76;61.14;98004.00;5046161;28;20050;-67
2022/02/06 09:11:19;;;;;;;15.00;5.30;;;;;;;2.75;61.78;98013.19;5045748;28;20029;-66
2022/02/06 09:13:45;;;;;;;13.18;4.55;;;;;;;2.76;61.44;98010.25;5044601;28;20508;-67
2022/02/06 09:16:10;;;;;;;16.80;5.55;;;;;;;2.77;62.20;98001.03;5044885;28;20032;-66
2022/02/06 09:18:35;;;;;;;8.68;4.07;;;;;;;2.78;62.12;97991.00;5044232;28;20658;-66
2022/02/06 09:21:01;;;;;;;9.75;4.20;;;;;;;2.80;61.44;97988.88;5045223;28;20031;-67
2022/02/06 09:23:26;;;;;;;12.25;5.28;;;;;;;2.85;61.90;97993.53;5044738;28;20477;-66
2022/02/06 09:25:52;;;;;;;11.43;5.05;;;;;;;2.86;62.52;97990.56;5044977;28;20032;-66
2022/02/06 09:28:17;;;;;;;8.43;4.45;;;;;;;2.94;62.41;97986.53;5045938;28;20027;-66
2022/02/06 09:30:42;;;;;;;7.00;3.30;;;;;;;2.99;61.90;97975.75;5046473;28;20033;-66
2022/02/06 09:35:35;;;;;;;7.68;3.30;;;;;;;3.11;61.44;97986.41;5045322;28;20140;-66
2022/02/06 09:38:02;;;;;;;9.93;3.92;;;;;;;3.16;62.00;97967.47;5045979;28;20105;-66
2022/02/06 09:40:28;;;;;;;8.48;3.90;;;;;;;3.22;61.35;97968.34;5043873;28;20044;-66
2022/02/06 09:42:58;;;;;;;8.48;3.80;;;;;;;3.26;61.47;97953.22;5045744;28;20044;-66
2022/02/06 09:45:28;;;;;;;;;;;;;;;3.29;60.75;97949.94;5022656;28;20119;-66
2022/02/06 09:47:53;;;;;;;9.30;4.25;;;;;;;3.34;61.08;97954.59;5019136;28;19924;-66
2022/02/06 09:50:19;;;;;;;7.57;4.13;;;;;;;3.37;61.55;97945.94;5026504;28;20037;-66
2022/02/06 09:52:46;;;;;;;10.85;4.22;;;;;;;3.39;61.01;97941.09;5031190;28;20048;-66
2022/02/06 09:55:15;;;;;;;13.00;4.97;;;;;;;3.39;60.97;97932.97;5024337;28;20148;-66
2022/02/06 09:57:52;;;;;;;12.55;4.57;;;;;;;3.40;61.26;97929.97;5024690;28;20032;-65
2022/02/06 10:00:23;;;;;;;12.88;4.10;;;;;;;3.42;61.35;97922.41;5021242;28;20037;-66
2022/02/06 10:02:55;;;;;;;11.48;5.05;;;;;;;3.43;61.55;97924.03;5024317;28;20042;-66
2022/02/06 10:05:21;;;;;;;8.68;3.47;;;;;;;3.42;61.17;97919.69;5021293;28;20110;-65
2022/02/06 10:08:23;;;;;;;9.63;4.10;;;;;;;3.39;61.09;97924.81;5016525;28;20029;-66
2022/02/06 10:11:01;;;;;;;7.60;3.58;;;;;;;3.33;62.07;97906.91;5023474;28;20666;-66
2022/02/06 10:13:27;;;;;;;10.93;3.97;;;;;;;3.28;62.18;97904.94;5024969;28;20033;-66
2022/02/06 10:15:55;;;;;;;13.50;4.55;;;;;;;3.25;62.13;97909.00;5022920;28;20759;-65
2022/02/06 10:18:21;;;;;;;11.27;4.30;;;;;;;3.23;61.65;97916.59;5023155;28;20040;-65
2022/02/06 10:20:47;;;;;;;10.65;5.68;;;;;;;3.23;62.52;97903.03;5024539;28;20025;-66
2022/02/06 10:26:06;;;;;;;10.88;4.25;;;;;;;3.23;62.85;97905.75;5020415;28;20056;-66
2022/02/06 10:28:45;;;;;;;10.95;4.25;;;;;;;3.26;63.46;97912.56;5017599;28;20094;-66
2022/02/06 10:31:12;;;;;;;10.68;4.18;;;;;;;3.28;62.86;97891.41;5014798;28;20029;-66
2022/02/06 10:33:44;;;;;;;7.80;3.67;;;;;;;3.34;63.66;97892.25;5022900;28;20808;-67
2022/02/06 10:36:09;;;;;;;9.85;3.80;;;;;;;3.40;63.54;97894.72;5024189;28;20036;-65
2022/02/06 10:38:34;;;;;;;8.88;3.80;;;;;;;3.48;63.35;97877.13;5023430;28;20044;-66
2022/02/06 10:41:13;;;;;;;7.20;3.13;;;;;;;3.52;63.38;97864.69;5028761;28;20068;-65
2022/02/06 10:43:57;;;;;;;15.35;4.20;;;;;;;3.49;62.88;97851.66;5022157;28;20037;-66
2022/02/06 10:46:24;;;;;;;10.80;3.58;;;;;;;3.49;63.43;97859.00;5023181;28;20147;-66
2022/02/06 10:48:53;;;;;;;8.02;3.15;;;;;;;3.44;63.80;97854.38;5017625;28;20052;-66
2022/02/06 10:51:38;;;;;;;8.50;4.00;;;;;;;3.39;63.99;97843.50;5015474;28;20083;-66
2022/02/06 10:54:06;;;;;;;9.05;4.28;;;;;;;3.37;64.56;97840.25;5018475;28;20033;-66
2022/02/06 10:56:32;;;;;;;9.75;4.13;;;;;;;3.34;64.02;97835.34;5024169;28;20029;-66
2022/02/06 10:59:04;;;;;;;11.48;4.72;;;;;;;3.30;63.79;97821.50;5022571;28;20084;-66
2022/02/06 11:01:31;;;;;;;8.88;4.18;;;;;;;3.28;64.54;97827.19;5022536;28;20079;-65
2022/02/06 11:04:29;;;;;;;15.45;6.93;;;;;;;3.27;64.65;97822.84;5020588;28;20021;-65
2022/02/06 11:07:15;;;;;;;8.45;4.18;;;;;;;3.32;64.68;97813.91;5022888;28;20095;-66
2022/02/06 11:09:40;;;;;;;11.32;4.22;;;;;;;3.37;65.16;97802.28;5015904;28;20028;-65
2022/02/06 11:12:15;;;;;;;14.35;5.03;;;;;;;3.37;65.14;97807.72;5014229;28;20029;-65
2022/02/06 11:14:49;;;;;;;16.48;6.30;;;;;;;3.37;65.37;97796.88;5020121;28;20094;-65
2022/02/06 11:17:20;;;;;;;11.77;3.97;;;;;;;3.35;65.48;97805.25;5023203;28;20029;-66
2022/02/06 11:20:04;;;;;;;10.30;4.28;;;;;;;3.35;64.65;97788.19;5022356;28;20755;-66
2022/02/06 11:22:30;;;;;;;10.65;4.78;;;;;;;3.36;65.43;97806.09;5021116;28;20041;-67
2022/02/06 11:24:56;;;;;;;13.98;5.68;;;;;;;3.33;64.97;97796.56;5021057;28;20033;-66
2022/02/06 11:27:22;;;;;;;13.75;5.68;;;;;;;3.33;64.79;97791.16;5022127;28;20116;-66
2022/02/06 11:29:48;;;;;;;10.68;4.45;;;;;;;3.32;65.77;97794.13;5018418;28;20029;-66
2022/02/06 11:32:14;;;;;;;9.43;4.00;;;;;;;3.29;65.18;97795.47;5013529;28;20090;-67
2022/02/06 11:34:44;;;;;;;8.93;4.40;;;;;;;3.26;65.46;97788.69;5012852;28;21096;-65
2022/02/06 11:46:00;;;;;;;9.30;4.43;;;;;;;3.16;65.96;97783.22;5021874;28;20075;-65
2022/02/06 11:48:31;;;;;;;12.02;5.25;;;;;;;3.13;66.19;97771.03;5022540;28;20291;-65
2022/02/06 11:50:57;;;;;;;15.93;5.63;;;;;;;3.08;66.96;97773.72;5018002;28;20036;-66
2022/02/06 11:53:38;;;;;;;10.80;4.80;;;;;;;3.07;66.59;97773.97;5014133;28;20026;-66
2022/02/06 11:56:22;;;;;;;13.82;4.70;;;;;;;3.07;66.11;97766.66;5017231;28;20567;-65
2022/02/06 11:58:50;;;;;;;11.18;4.40;;;;;;;3.14;66.21;97761.00;5022096;28;20421;-66
2022/02/06 12:01:15;;;;;;;9.82;4.78;;;;;;;3.20;66.40;97765.34;5023217;28;21127;-65
2022/02/06 12:03:57;;;;;;;7.97;3.10;;;;;;;3.27;65.87;97762.38;5022888;28;20430;-65
2022/02/06 12:06:48;;;;;;;10.80;5.05;;;;;;;3.37;65.25;97745.38;5019902;28;20718;-65
2022/02/06 12:09:16;;;;;;;14.18;5.50;;;;;;;3.47;65.19;97745.38;5022851;28;20067;-65
2022/02/06 12:12:05;;;;;;;10.10;4.65;;;;;;;3.55;63.72;97734.00;5023360;28;20033;-65
2022/02/06 12:14:40;;;;;;;11.35;5.07;;;;;;;3.60;62.68;97730.50;5013422;28;20106;-64
2022/02/06 12:17:17;;;;;;;14.32;6.47;;;;;;;3.68;63.26;97723.72;5015515;28;20114;-65
2022/02/06 12:19:42;;;;;;;13.95;5.50;;;;;;;3.73;62.93;97721.03;5022947;28;20037;-66
2022/02/06 12:22:37;;;;;;;27.92;11.30;;;;;;;3.77;62.09;97707.72;5023655;28;20033;-65
2022/02/06 12:25:25;;;;;;;27.30;11.52;;;;;;;3.84;61.82;97709.13;5017036;28;20084;-65
2022/02/06 12:28:19;;;;;;;18.90;8.02;;;;;;;3.91;62.40;97710.72;5021953;28;20061;-65
2022/02/06 12:30:46;;;;;;;16.83;6.97;;;;;;;3.99;62.34;97704.75;5023116;28;20029;-65
2022/02/06 12:33:26;;;;;;;17.02;7.88;;;;;;;4.04;62.38;97696.63;5023913;28;20128;-65
2022/02/06 12:38:36;;;;;;;12.25;6.20;;;;;;;4.14;61.42;97690.38;5019767;28;20075;-65
2022/02/06 12:41:25;;;;;;;15.77;6.50;;;;;;;4.16;61.21;97685.47;5026089;28;20100;-64
2022/02/06 12:43:54;;;;;;;19.00;6.38;;;;;;;4.13;61.43;97680.59;5023373;28;20080;-65
2022/02/06 12:46:25;;;;;;;11.95;4.22;;;;;;;4.14;61.65;97668.66;5030290;28;20032;-65
2022/02/06 12:48:52;;;;;;;30.95;9.57;;;;;;;4.14;62.42;97674.06;5023008;28;20048;-66
2022/02/06 12:51:28;;;;;;;29.10;9.50;;;;;;;4.11;62.55;97674.63;5027079;28;20033;-66
2022/02/06 12:54:04;;;;;;;49.83;13.57;;;;;;;4.09;63.02;97646.94;5021975;28;20021;-66
2022/02/06 12:56:31;;;;;;;35.47;11.82;;;;;;;4.05;63.25;97643.19;5013594;28;20564;-66
2022/02/06 12:58:59;;;;;;;24.70;9.93;;;;;;;4.02;63.09;97655.38;5020833;28;20022;-66
2022/02/06 13:01:41;;;;;;;19.25;6.80;;;;;;;3.98;63.86;97660.53;5031986;28;20053;-66
2022/02/06 13:04:11;;;;;;;22.67;7.50;;;;;;;3.92;64.01;97648.06;5027200;28;20389;-66
2022/02/06 13:06:41;;;;;;;34.25;11.05;;;;;;;3.91;64.47;97638.31;5025297;28;20662;-64
2022/02/06 13:09:14;;;;;;;;;;;;;;;3.87;64.86;97635.31;5028292;28;20025;-63
2022/02/06 13:11:57;;;;;;;38.28;13.40;;;;;;;3.79;64.86;97635.88;5024479;28;20747;-66
2022/02/06 13:20:26;;;;;;;23.42;7.50;;;;;;;3.66;65.40;97610.13;5020626;28;20401;-66
2022/02/06 13:28:47;;;;;;;52.55;19.60;;;;;;;3.64;65.90;97603.31;5027082;28;20159;-65
2022/02/06 13:34:02;;;;;;;47.70;16.23;;;;;;;3.62;66.12;97590.06;5026099;28;21202;-65
2022/02/06 13:36:49;;;;;;;50.35;16.92;;;;;;;3.60;66.21;97583.25;5024097;28;20035;-65
2022/02/06 13:39:24;;;;;;;71.68;23.98;;;;;;;3.60;66.51;97583.25;5018458;28;20053;-65
2022/02/06 13:41:51;;;;;;;31.65;11.27;;;;;;;3.62;66.11;97583.81;5023194;28;20052;-65
2022/02/06 13:44:19;;;;;;;29.95;9.30;;;;;;;3.64;66.60;97581.63;5022042;28;20071;-65
2022/02/06 13:46:46;;;;;;;16.73;5.63;;;;;;;3.63;66.06;97588.13;5024806;28;20079;-65
2022/02/06 13:49:11;;;;;;;21.48;8.27;;;;;;;3.62;66.44;97587.34;5025003;28;20028;-65
2022/02/06 13:51:50;;;;;;;17.42;6.15;;;;;;;3.66;66.34;97580.28;5031599;28;20303;-65
2022/02/06 13:54:17;;;;;;;20.38;7.40;;;;;;;3.67;66.11;97576.47;5026645;28;20041;-67
2022/02/06 13:56:44;;;;;;;22.77;9.07;;;;;;;3.74;66.51;97578.91;5020109;28;20037;-65
2022/02/06 13:59:12;;;;;;;25.10;9.23;;;;;;;3.78;65.79;97571.03;5015152;28;20391;-65
2022/02/06 14:01:40;;;;;;;24.13;8.02;;;;;;;3.83;65.45;97577.28;5019332;28;20029;-66
2022/02/06 14:04:27;;;;;;;14.77;5.47;;;;;;;3.90;65.36;97568.84;5025961;28;20040;-65
2022/02/06 14:07:09;;;;;;;11.52;5.60;;;;;;;3.94;65.41;97575.34;5025531;28;20080;-65
2022/02/06 14:12:09;;;;;;;13.93;6.40;;;;;;;4.05;64.57;97549.00;5026406;28;20041;-65
2022/02/06 14:14:56;;;;;;;12.60;5.00;;;;;;;4.08;64.85;97536.78;5031336;28;20018;-65
2022/02/06 14:17:26;;;;;;;11.52;5.75;;;;;;;4.10;64.61;97532.72;5024180;28;20029;-66
2022/02/06 14:19:54;;;;;;;13.45;5.18;;;;;;;4.13;64.04;97529.44;5022756;28;20032;-65
2022/02/06 14:22:28;;;;;;;12.70;5.53;;;;;;;4.13;64.19;97525.91;5018208;28;20069;-66
2022/02/06 14:24:56;;;;;;;9.65;4.43;;;;;;;4.15;63.60;97532.69;5026280;28;20029;-66
2022/02/06 14:27:27;;;;;;;11.75;4.90;;;;;;;4.16;63.92;97519.94;5024805;28;20032;-65
2022/02/06 14:30:02;;;;;;;12.02;4.70;;;;;;;4.17;64.35;97514.25;5025563;28;20033;-65